sensor_id;sensor_type;location;lat;lon;timestamp;temperature;humidity
4431;DHT22;2228;48.140;11.488;2023-09-19T17:03:17;21.10;99.90
4431;DHT22;2228;48.140;11.488;2023-09-19T17:05:44;20.90;99.90
4431;DHT22;2228;48.140;11.488;2023-09-19T17:08:12;20.80;99.90
4431;DHT22;2228;48.140;11.488;2023-09-19T17:10:39;20.70;99.90
4431;DHT22;2228;48.140;11.488;2023-09-19T17:13:10;20.60;99.90
4431;DHT22;2228;48.140;11.488;2023-09-19T17:15:37;20.50;99.90
4431;DHT22;2228;48.140;11.488;2023-09-19T17:18:05;20.30;99.90
4431;DHT22;2228;48.140;11.488;2023-09-19T17:20:33;20.20;99.90
4431;DHT22;2228;48.140;11.488;2023-09-19T17:23:00;20.10;99.90
4431;DHT22;2228;48.140;11.488;2023-09-19T17:25:27;20.10;99.90
4431;DHT22;2228;48.140;11.488;2023-09-19T17:27:56;19.90;99.90
4431;DHT22;2228;48.140;11.488;2023-09-19T17:30:24;19.80;99.90
4431;DHT22;2228;48.140;11.488;2023-09-19T17:32:56;19.90;99.90
4431;DHT22;2228;48.140;11.488;2023-09-19T17:35:27;19.50;99.90
4431;DHT22;2228;48.140;11.488;2023-09-19T17:37:55;19.30;99.90
4431;DHT22;2228;48.140;11.488;2023-09-19T17:40:22;19.10;99.90
4431;DHT22;2228;48.140;11.488;2023-09-19T17:42:49;18.90;99.90
4431;DHT22;2228;48.140;11.488;2023-09-19T17:45:16;18.80;99.90
4431;DHT22;2228;48.140;11.488;2023-09-19T17:47:43;18.60;99.90
4431;DHT22;2228;48.140;11.488;2023-09-19T17:50:10;18.50;99.90
4431;DHT22;2228;48.140;11.488;2023-09-19T17:52:38;18.50;99.90
4431;DHT22;2228;48.140;11.488;2023-09-19T17:55:12;18.40;99.90
4431;DHT22;2228;48.140;11.488;2023-09-19T17:57:39;18.30;99.90
4431;DHT22;2228;48.140;11.488;2023-09-19T18:00:08;18.20;1.00
4431;DHT22;2228;48.140;11.488;2023-09-19T18:02:36;18.10;1.00
4431;DHT22;2228;48.140;11.488;2023-09-19T18:05:04;18.00;1.00
4431;DHT22;2228;48.140;11.488;2023-09-19T18:07:31;17.90;1.00
4431;DHT22;2228;48.140;11.488;2023-09-19T18:09:58;17.70;1.00
4431;DHT22;2228;48.140;11.488;2023-09-19T18:12:28;17.60;1.00
4431;DHT22;2228;48.140;11.488;2023-09-19T18:14:55;17.50;1.00
4431;DHT22;2228;48.140;11.488;2023-09-19T18:17:22;17.60;1.00
4431;DHT22;2228;48.140;11.488;2023-09-19T18:19:49;17.40;1.00
4431;DHT22;2228;48.140;11.488;2023-09-19T18:22:16;17.30;1.00
4431;DHT22;2228;48.140;11.488;2023-09-19T18:24:45;17.70;1.00
4431;DHT22;2228;48.140;11.488;2023-09-19T18:27:12;17.50;1.00
4431;DHT22;2228;48.140;11.488;2023-09-19T18:29:40;17.10;1.00
4431;DHT22;2228;48.140;11.488;2023-09-19T18:32:09;17.10;1.00
4431;DHT22;2228;48.140;11.488;2023-09-19T18:34:36;16.90;1.00
4431;DHT22;2228;48.140;11.488;2023-09-19T18:37:03;16.90;1.00
4431;DHT22;2228;48.140;11.488;2023-09-19T18:39:32;16.80;1.00
4431;DHT22;2228;48.140;11.488;2023-09-19T18:42:00;16.70;1.00
4431;DHT22;2228;48.140;11.488;2023-09-19T18:44:28;16.60;1.00
4431;DHT22;2228;48.140;11.488;2023-09-19T18:46:57;16.50;1.00
4431;DHT22;2228;48.140;11.488;2023-09-19T18:49:27;16.40;1.00
4431;DHT22;2228;48.140;11.488;2023-09-19T18:51:54;16.20;1.00
4431;DHT22;2228;48.140;11.488;2023-09-19T18:54:21;16.30;1.00
4431;DHT22;2228;48.140;11.488;2023-09-19T18:56:48;16.30;1.00
4431;DHT22;2228;48.140;11.488;2023-09-19T18:59:15;16.30;1.00
4431;DHT22;2228;48.140;11.488;2023-09-19T19:01:46;16.50;1.00
4431;DHT22;2228;48.140;11.488;2023-09-19T19:04:14;16.20;1.00
4431;DHT22;2228;48.140;11.488;2023-09-19T19:06:41;16.10;1.00
4431;DHT22;2228;48.140;11.488;2023-09-19T19:09:08;16.00;1.00
4431;DHT22;2228;48.140;11.488;2023-09-19T19:11:37;15.90;7.40
4431;DHT22;2228;48.140;11.488;2023-09-19T19:14:05;15.90;24.90
4431;DHT22;2228;48.140;11.488;2023-09-19T19:16:32;16.00;1.00
4431;DHT22;2228;48.140;11.488;2023-09-19T19:19:01;16.00;1.00
4431;DHT22;2228;48.140;11.488;2023-09-19T19:21:30;16.00;1.00
4431;DHT22;2228;48.140;11.488;2023-09-19T19:23:57;16.00;1.00
4431;DHT22;2228;48.140;11.488;2023-09-19T19:26:24;15.90;17.20
4431;DHT22;2228;48.140;11.488;2023-09-19T19:28:52;16.00;9.00
4431;DHT22;2228;48.140;11.488;2023-09-19T19:31:19;15.90;1.00
4431;DHT22;2228;48.140;11.488;2023-09-19T19:33:49;15.90;32.80
4431;DHT22;2228;48.140;11.488;2023-09-19T19:36:18;15.60;75.90
4431;DHT22;2228;48.140;11.488;2023-09-19T19:38:58;16.00;99.90
4431;DHT22;2228;48.140;11.488;2023-09-19T19:41:27;15.50;99.90
4431;DHT22;2228;48.140;11.488;2023-09-19T19:43:57;15.50;99.90
4431;DHT22;2228;48.140;11.488;2023-09-19T19:46:24;15.80;99.90
4431;DHT22;2228;48.140;11.488;2023-09-19T19:48:51;15.60;96.10
4431;DHT22;2228;48.140;11.488;2023-09-19T19:51:18;15.50;93.30
4431;DHT22;2228;48.140;11.488;2023-09-19T19:53:45;15.50;99.90
4431;DHT22;2228;48.140;11.488;2023-09-19T19:56:14;15.50;99.90
4431;DHT22;2228;48.140;11.488;2023-09-19T19:58:41;15.40;99.90
4431;DHT22;2228;48.140;11.488;2023-09-19T20:01:09;15.50;99.90
4431;DHT22;2228;48.140;11.488;2023-09-19T20:03:36;15.50;99.90
4431;DHT22;2228;48.140;11.488;2023-09-19T20:06:04;15.50;99.90
4431;DHT22;2228;48.140;11.488;2023-09-19T20:08:31;15.50;99.90
4431;DHT22;2228;48.140;11.488;2023-09-19T20:11:02;15.50;99.90
4431;DHT22;2228;48.140;11.488;2023-09-19T20:13:30;15.50;99.90
4431;DHT22;2228;48.140;11.488;2023-09-19T20:15:58;15.80;99.90
4431;DHT22;2228;48.140;11.488;2023-09-19T20:18:25;15.30;99.90
4431;DHT22;2228;48.140;11.488;2023-09-19T20:20:53;15.20;99.90
4431;DHT22;2228;48.140;11.488;2023-09-19T20:23:21;15.20;99.90
4431;DHT22;2228;48.140;11.488;2023-09-19T20:25:48;15.10;99.90
4431;DHT22;2228;48.140;11.488;2023-09-19T20:28:16;15.00;99.90
4431;DHT22;2228;48.140;11.488;2023-09-19T20:30:45;15.00;99.90
4431;DHT22;2228;48.140;11.488;2023-09-19T20:33:13;15.10;99.90
4431;DHT22;2228;48.140;11.488;2023-09-19T20:35:41;15.20;99.90
4431;DHT22;2228;48.140;11.488;2023-09-19T20:38:08;15.00;99.90
4431;DHT22;2228;48.140;11.488;2023-09-19T20:40:39;15.00;99.90
4431;DHT22;2228;48.140;11.488;2023-09-19T20:43:06;15.10;99.90
4431;DHT22;2228;48.140;11.488;2023-09-19T20:45:35;15.10;99.90
4431;DHT22;2228;48.140;11.488;2023-09-19T20:48:07;15.50;99.90
4431;DHT22;2228;48.140;11.488;2023-09-19T20:50:36;15.00;99.90
4431;DHT22;2228;48.140;11.488;2023-09-19T20:53:03;14.80;99.90
4431;DHT22;2228;48.140;11.488;2023-09-19T20:55:31;14.90;99.90
4431;DHT22;2228;48.140;11.488;2023-09-19T20:58:11;14.90;99.90
4431;DHT22;2228;48.140;11.488;2023-09-19T21:00:53;14.90;99.90
4431;DHT22;2228;48.140;11.488;2023-09-19T21:03:27;15.80;99.90
4431;DHT22;2228;48.140;11.488;2023-09-19T21:06:01;14.70;99.90
4431;DHT22;2228;48.140;11.488;2023-09-19T21:08:31;15.00;99.90
4431;DHT22;2228;48.140;11.488;2023-09-19T21:11:09;14.70;99.90
4431;DHT22;2228;48.140;11.488;2023-09-19T21:13:36;14.80;99.90
4431;DHT22;2228;48.140;11.488;2023-09-19T21:16:05;14.50;99.90
4431;DHT22;2228;48.140;11.488;2023-09-19T21:18:34;14.60;99.90
4431;DHT22;2228;48.140;11.488;2023-09-19T21:21:02;14.70;99.90
4431;DHT22;2228;48.140;11.488;2023-09-19T21:23:30;14.70;99.90
4431;DHT22;2228;48.140;11.488;2023-09-19T21:25:57;14.60;99.90
4431;DHT22;2228;48.140;11.488;2023-09-19T21:28:25;14.80;99.90
4431;DHT22;2228;48.140;11.488;2023-09-19T21:30:59;14.70;99.90
4431;DHT22;2228;48.140;11.488;2023-09-19T21:33:27;14.70;99.90
4431;DHT22;2228;48.140;11.488;2023-09-19T21:35:56;14.60;99.90
4431;DHT22;2228;48.140;11.488;2023-09-19T21:38:23;14.50;99.90
4431;DHT22;2228;48.140;11.488;2023-09-19T21:40:50;14.50;99.90
4431;DHT22;2228;48.140;11.488;2023-09-19T21:43:17;14.70;99.90
4431;DHT22;2228;48.140;11.488;2023-09-19T21:45:45;14.70;99.90
4431;DHT22;2228;48.140;11.488;2023-09-19T21:48:12;14.50;99.90
4431;DHT22;2228;48.140;11.488;2023-09-19T21:50:39;15.50;99.90
4431;DHT22;2228;48.140;11.488;2023-09-19T21:53:08;14.40;99.90
4431;DHT22;2228;48.140;11.488;2023-09-19T21:55:35;14.60;99.90
4431;DHT22;2228;48.140;11.488;2023-09-19T21:58:02;14.40;99.90
4431;DHT22;2228;48.140;11.488;2023-09-19T22:00:29;14.50;99.90
4431;DHT22;2228;48.140;11.488;2023-09-19T22:03:03;14.60;99.90
4431;DHT22;2228;48.140;11.488;2023-09-19T22:05:32;14.70;99.90
4431;DHT22;2228;48.140;11.488;2023-09-19T22:08:04;14.60;99.90
4431;DHT22;2228;48.140;11.488;2023-09-19T22:10:40;14.60;99.90
4431;DHT22;2228;48.140;11.488;2023-09-19T22:13:07;14.50;99.90
4431;DHT22;2228;48.140;11.488;2023-09-19T22:15:34;14.50;99.90
4431;DHT22;2228;48.140;11.488;2023-09-19T22:18:05;14.50;99.90
4431;DHT22;2228;48.140;11.488;2023-09-19T22:20:32;14.40;99.90
4431;DHT22;2228;48.140;11.488;2023-09-19T22:23:04;14.40;99.90
4431;DHT22;2228;48.140;11.488;2023-09-19T22:25:33;14.30;99.90
4431;DHT22;2228;48.140;11.488;2023-09-19T22:28:02;14.40;99.90
4431;DHT22;2228;48.140;11.488;2023-09-19T22:30:34;14.40;99.90
4431;DHT22;2228;48.140;11.488;2023-09-19T22:33:04;14.30;99.90
4431;DHT22;2228;48.140;11.488;2023-09-19T22:35:38;14.30;99.90
4431;DHT22;2228;48.140;11.488;2023-09-19T22:38:06;14.30;99.90
4431;DHT22;2228;48.140;11.488;2023-09-19T22:40:35;14.20;99.90
4431;DHT22;2228;48.140;11.488;2023-09-19T22:43:03;14.20;99.90
4431;DHT22;2228;48.140;11.488;2023-09-19T22:45:32;14.20;99.90
4431;DHT22;2228;48.140;11.488;2023-09-19T22:48:00;14.30;99.90
4431;DHT22;2228;48.140;11.488;2023-09-19T22:50:31;14.00;99.90
4431;DHT22;2228;48.140;11.488;2023-09-19T22:53:02;14.10;99.90
4431;DHT22;2228;48.140;11.488;2023-09-19T22:55:36;14.20;99.90
4431;DHT22;2228;48.140;11.488;2023-09-19T22:58:06;14.20;99.90
4431;DHT22;2228;48.140;11.488;2023-09-19T23:00:36;14.10;99.90
4431;DHT22;2228;48.140;11.488;2023-09-19T23:03:04;14.10;99.90
4431;DHT22;2228;48.140;11.488;2023-09-19T23:05:35;14.50;99.90
4431;DHT22;2228;48.140;11.488;2023-09-19T23:08:04;14.60;99.90
4431;DHT22;2228;48.140;11.488;2023-09-19T23:10:42;14.10;99.90
4431;DHT22;2228;48.140;11.488;2023-09-19T23:13:14;14.10;1.00
4431;DHT22;2228;48.140;11.488;2023-09-19T23:15:51;14.10;1.00
4431;DHT22;2228;48.140;11.488;2023-09-19T23:18:20;14.20;1.00
4431;DHT22;2228;48.140;11.488;2023-09-19T23:20:47;14.10;1.00
4431;DHT22;2228;48.140;11.488;2023-09-19T23:23:19;14.10;1.00
4431;DHT22;2228;48.140;11.488;2023-09-19T23:25:50;14.40;1.00
4431;DHT22;2228;48.140;11.488;2023-09-19T23:28:17;14.20;1.00
4431;DHT22;2228;48.140;11.488;2023-09-19T23:30:45;14.00;1.00
4431;DHT22;2228;48.140;11.488;2023-09-19T23:33:18;14.00;1.00
4431;DHT22;2228;48.140;11.488;2023-09-19T23:35:46;14.00;1.00
4431;DHT22;2228;48.140;11.488;2023-09-19T23:38:13;14.00;1.00
4431;DHT22;2228;48.140;11.488;2023-09-19T23:40:40;13.90;1.00
4431;DHT22;2228;48.140;11.488;2023-09-19T23:43:09;13.90;1.00
4431;DHT22;2228;48.140;11.488;2023-09-19T23:45:37;13.80;1.00
4431;DHT22;2228;48.140;11.488;2023-09-19T23:48:06;13.90;1.00
4431;DHT22;2228;48.140;11.488;2023-09-19T23:50:34;13.90;1.00
4431;DHT22;2228;48.140;11.488;2023-09-19T23:53:03;14.30;1.00
4431;DHT22;2228;48.140;11.488;2023-09-19T23:55:31;13.90;1.00
4431;DHT22;2228;48.140;11.488;2023-09-19T23:57:59;13.90;1.00
